Time;durP1;ratioP1;P1;durP2;ratioP2;P2;SDS_P1;SDS_P2;PMS_P1;PMS_P2;Temp;Humidity;BMP_temperature;BMP_pressure;BME280_temperature;BME280_humidity;BME280_pressure;Samples;Min_cycle;Max_cycle;Signal;HPM_P1;HPM_P2
2023/03/06 00:02:12;;;;;;;;;;;;;;;1.97;87.97363;100995.6;;;;-71
2023/03/06 00:02:37;;;;;;;1.9;0.8;;;;;;;;;;;;;-71
2023/03/06 00:07:12;;;;;;;;;;;;;;;1.96;88.20996;100989.5;;;;-71
2023/03/06 00:12:12;;;;;;;;;;;;;;;1.91;88.00586;100983.8;;;;-71
2023/03/06 00:17:12;;;;;;;;;;;;;;;1.91;88.03809;100972;;;;-70
2023/03/06 00:22:15;;;;;;;;;;;;;;;1.85;87.98145;100962.9;;;;-70
2023/03/06 00:27:13;;;;;;;;;;;;;;;1.82;87.41406;100951.5;;;;-70
2023/03/06 00:32:12;;;;;;;;;;;;;;;1.76;88.13672;100944.5;;;;-71
2023/03/06 00:32:36;;;;;;;3.3;0.7;;;;;;;;;;;;;-71
2023/03/06 00:37:12;;;;;;;;;;;;;;;1.75;88.03516;100941.4;;;;-70
2023/03/06 00:42:12;;;;;;;;;;;;;;;1.74;88.03516;100936.6;;;;-71
2023/03/06 00:47:12;;;;;;;;;;;;;;;1.66;87.87793;100930.4;;;;-71
2023/03/06 00:52:12;;;;;;;;;;;;;;;1.65;88.14648;100917.8;;;;-70
2023/03/06 00:57:12;;;;;;;;;;;;;;;1.62;88.32227;100919.3;;;;-71
2023/03/06 01:02:12;;;;;;;;;;;;;;;1.57;88.20508;100915.5;;;;-71
2023/03/06 01:02:36;;;;;;;1.7;0.7;;;;;;;;;;;;;-71
2023/03/06 01:07:12;;;;;;;;;;;;;;;1.52;88.35645;100911.9;;;;-70
2023/03/06 01:12:12;;;;;;;;;;;;;;;1.5;88.21191;100913.6;;;;-71
2023/03/06 01:17:12;;;;;;;;;;;;;;;1.5;88.49316;100912.8;;;;-71
2023/03/06 01:22:12;;;;;;;;;;;;;;;1.48;88.55566;100911.6;;;;-71
2023/03/06 01:27:12;;;;;;;;;;;;;;;1.51;88.37598;100906.8;;;;-70
2023/03/06 01:32:12;;;;;;;;;;;;;;;1.53;88.17578;100901.1;;;;-70
2023/03/06 01:32:36;;;;;;;0.9;0.5;;;;;;;;;;;;;-70
2023/03/06 01:37:12;;;;;;;;;;;;;;;1.6;88.90234;100895.9;;;;-71
2023/03/06 01:42:12;;;;;;;;;;;;;;;1.64;88.36914;100887;;;;-70
2023/03/06 01:47:12;;;;;;;;;;;;;;;1.67;88.96094;100887;;;;-71
2023/03/06 01:52:13;;;;;;;;;;;;;;;1.73;88.5293;100884.3;;;;-71
2023/03/06 01:57:14;;;;;;;;;;;;;;;1.77;88.92578;100875.4;;;;-71
2023/03/06 02:02:13;;;;;;;;;;;;;;;1.83;88.46289;100868.7;;;;-70
2023/03/06 02:02:35;;;;;;;3.9;0.5;;;;;;;;;;;;;-70
2023/03/06 02:07:13;;;;;;;;;;;;;;;1.86;88.28711;100862.2;;;;-71
2023/03/06 02:12:14;;;;;;;;;;;;;;;1.9;88.99902;100863.7;;;;-71
2023/03/06 02:17:13;;;;;;;;;;;;;;;1.95;89.04102;100860.9;;;;-71
2023/03/06 02:22:12;;;;;;;;;;;;;;;2.01;88.83789;100857.8;;;;-72
2023/03/06 02:27:13;;;;;;;;;;;;;;;2.04;88.49512;100847.2;;;;-71
2023/03/06 02:32:12;;;;;;;;;;;;;;;2.08;88.56934;100833.1;;;;-71
2023/03/06 02:32:35;;;;;;;1.6;0.5;;;;;;;;;;;;;-72
2023/03/06 02:37:12;;;;;;;;;;;;;;;2.11;88.69434;100824.3;;;;-71
2023/03/06 02:42:12;;;;;;;;;;;;;;;2.15;88.75977;100814.8;;;;-70
2023/03/06 02:47:12;;;;;;;;;;;;;;;2.18;88.39746;100810.1;;;;-71
2023/03/06 02:52:13;;;;;;;;;;;;;;;2.22;88.90234;100801.1;;;;-71
2023/03/06 02:57:12;;;;;;;;;;;;;;;2.26;89.06152;100791.6;;;;-70
2023/03/06 03:02:12;;;;;;;;;;;;;;;2.3;89.09277;100783.4;;;;-71
2023/03/06 03:02:35;;;;;;;2.1;0.6;;;;;;;;;;;;;-71
2023/03/06 03:07:12;;;;;;;;;;;;;;;2.33;88.94531;100778.7;;;;-71
2023/03/06 03:12:12;;;;;;;;;;;;;;;2.36;89.27734;100772.4;;;;-72
2023/03/06 03:17:12;;;;;;;;;;;;;;;2.38;88.91309;100768.2;;;;-71
2023/03/06 03:22:12;;;;;;;;;;;;;;;2.4;89.05957;100772.4;;;;-71
2023/03/06 03:27:12;;;;;;;;;;;;;;;2.43;89.05469;100770;;;;-72
2023/03/06 03:32:12;;;;;;;;;;;;;;;2.45;89.42676;100769.9;;;;-72
2023/03/06 03:32:34;;;;;;;1.6;0.6;;;;;;;;;;;;;-71
2023/03/06 03:37:12;;;;;;;;;;;;;;;2.49;89.3252;100765.5;;;;-72
2023/03/06 03:42:12;;;;;;;;;;;;;;;2.52;89.03027;100758;;;;-72
2023/03/06 03:47:12;;;;;;;;;;;;;;;2.53;88.97754;100760.1;;;;-72
2023/03/06 03:52:12;;;;;;;;;;;;;;;2.56;88.69043;100755.2;;;;-71
2023/03/06 03:57:13;;;;;;;;;;;;;;;2.55;88.9707;100759.2;;;;-71
2023/03/06 04:02:12;;;;;;;;;;;;;;;2.56;89.03711;100765.4;;;;-70
2023/03/06 04:02:34;;;;;;;1.3;0.6;;;;;;;;;;;;;-72
2023/03/06 04:07:12;;;;;;;;;;;;;;;2.53;89.08594;100760.2;;;;-71
2023/03/06 04:12:12;;;;;;;;;;;;;;;2.5;89.25391;100766.7;;;;-71
2023/03/06 04:17:14;;;;;;;;;;;;;;;2.46;89.39551;100762.9;;;;-72
2023/03/06 04:22:12;;;;;;;;;;;;;;;2.44;89.30371;100757.7;;;;-71
2023/03/06 04:27:12;;;;;;;;;;;;;;;2.4;88.83008;100754.2;;;;-71
2023/03/06 04:32:12;;;;;;;;;;;;;;;2.35;88.73438;100754.2;;;;-72
2023/03/06 04:32:34;;;;;;;2.8;0.4;;;;;;;;;;;;;-73
2023/03/06 04:37:15;;;;;;;;;;;;;;;2.29;88.8291;100750.4;;;;-71
2023/03/06 04:42:13;;;;;;;;;;;;;;;2.25;88.73535;100748.7;;;;-70
2023/03/06 04:47:15;;;;;;;;;;;;;;;2.2;88.88672;100740.4;;;;-72
2023/03/06 04:52:12;;;;;;;;;;;;;;;2.16;88.93262;100744;;;;-71
2023/03/06 04:57:15;;;;;;;;;;;;;;;2.12;88.79395;100743;;;;-71
2023/03/06 05:02:16;;;;;;;;;;;;;;;2.06;88.66309;100743.5;;;;-72
2023/03/06 05:02:33;;;;;;;2.3;0.4;;;;;;;;;;;;;-70
2023/03/06 05:07:12;;;;;;;;;;;;;;;2.02;88.82715;100743.5;;;;-72
2023/03/06 05:12:12;;;;;;;;;;;;;;;1.99;88.64844;100745.8;;;;-71
2023/03/06 05:17:12;;;;;;;;;;;;;;;1.94;88.50684;100743.1;;;;-71
2023/03/06 05:22:12;;;;;;;;;;;;;;;1.9;88.71777;100739.3;;;;-71
2023/03/06 05:27:12;;;;;;;;;;;;;;;1.88;88.66016;100738.8;;;;-71
2023/03/06 05:32:12;;;;;;;;;;;;;;;1.83;88.4541;100736.3;;;;-71
2023/03/06 05:32:32;;;;;;;1.1;0.3;;;;;;;;;;;;;-71
2023/03/06 05:37:12;;;;;;;;;;;;;;;1.82;88.64453;100732.2;;;;-71
2023/03/06 05:42:12;;;;;;;;;;;;;;;1.78;88.5293;100735.4;;;;-71
2023/03/06 05:47:12;;;;;;;;;;;;;;;1.77;88.53809;100741.7;;;;-71
2023/03/06 05:52:16;;;;;;;;;;;;;;;1.74;88.57422;100747.4;;;;-71
2023/03/06 05:57:16;;;;;;;;;;;;;;;1.71;88.54883;100747.1;;;;-71
2023/03/06 06:02:12;;;;;;;;;;;;;;;1.7;88.64355;100745.8;;;;-71
2023/03/06 06:02:32;;;;;;;1;0.3;;;;;;;;;;;;;-71
2023/03/06 06:07:15;;;;;;;;;;;;;;;1.64;88.44727;100750.3;;;;-72
2023/03/06 06:12:15;;;;;;;;;;;;;;;1.65;88.67383;100749.8;;;;-72
2023/03/06 06:17:15;;;;;;;;;;;;;;;1.6;88.48145;100748.7;;;;-72
2023/03/06 06:22:14;;;;;;;;;;;;;;;1.56;88.80859;100746.3;;;;-72
2023/03/06 06:27:15;;;;;;;;;;;;;;;1.51;88.69141;100740.4;;;;-70
2023/03/06 06:32:12;;;;;;;;;;;;;;;1.48;88.43652;100742.5;;;;-72
2023/03/06 06:32:31;;;;;;;1.8;0.4;;;;;;;;;;;;;-71
2023/03/06 06:37:14;;;;;;;;;;;;;;;1.48;88.61914;100743.1;;;;-71
2023/03/06 06:42:14;;;;;;;;;;;;;;;1.5;88.67676;100737.4;;;;-72
2023/03/06 06:47:12;;;;;;;;;;;;;;;1.5;88.7002;100745;;;;-71
2023/03/06 06:52:13;;;;;;;;;;;;;;;1.48;88.81348;100749.7;;;;-73
2023/03/06 06:57:16;;;;;;;;;;;;;;;1.48;88.62012;100753.7;;;;-72
2023/03/06 07:02:18;;;;;;;;;;;;;;;1.48;88.51074;100757.5;;;;-71
2023/03/06 07:02:31;;;;;;;1;0.4;;;;;;;;;;;;;-71
2023/03/06 07:07:12;;;;;;;;;;;;;;;1.49;88.73926;100752.8;;;;-71
2023/03/06 07:12:12;;;;;;;;;;;;;;;1.53;88.59766;100756.7;;;;-72
2023/03/06 07:17:12;;;;;;;;;;;;;;;1.55;88.50391;100760;;;;-71
2023/03/06 07:22:12;;;;;;;;;;;;;;;1.6;88.41797;100761.3;;;;-71
2023/03/06 07:27:12;;;;;;;;;;;;;;;1.7;88.35059;100761.3;;;;-71
2023/03/06 07:32:12;;;;;;;;;;;;;;;1.91;88.25488;100760.4;;;;-71
2023/03/06 07:32:30;;;;;;;1.3;0.5;;;;;;;;;;;;;-71
2023/03/06 07:37:12;;;;;;;;;;;;;;;2.09;88.14941;100758.7;;;;-71
2023/03/06 07:42:13;;;;;;;;;;;;;;;2.21;87.88184;100745.7;;;;-71
2023/03/06 07:47:15;;;;;;;;;;;;;;;2.32;88.41504;100748.1;;;;-71
2023/03/06 07:52:12;;;;;;;;;;;;;;;2.44;88.10352;100745.1;;;;-71
2023/03/06 07:57:12;;;;;;;;;;;;;;;2.56;87.50977;100744.3;;;;-71
2023/03/06 08:02:13;;;;;;;;;;;;;;;2.72;87.14258;100742.1;;;;-72
2023/03/06 08:02:36;;;;;;;1.1;0.6;;;;;;;;;;;;;-72
2023/03/06 08:07:12;;;;;;;;;;;;;;;2.88;86.72852;100739;;;;-72
2023/03/06 08:12:12;;;;;;;;;;;;;;;3.07;86.43066;100741;;;;-71
2023/03/06 08:17:15;;;;;;;;;;;;;;;3.23;86.08398;100738.7;;;;-72
2023/03/06 08:22:12;;;;;;;;;;;;;;;3.42;85.66602;100737.7;;;;-70
2023/03/06 08:27:16;;;;;;;;;;;;;;;3.63;85.34668;100738.5;;;;-72
2023/03/06 08:32:14;;;;;;;;;;;;;;;3.88;85.37598;100737.5;;;;-72
2023/03/06 08:36:07;;;;;;;;;;;;;;;4.08;85.39355;100739.8;;;;-71
2023/03/06 08:41:06;;;;;;;;;;;;;;;4.36;85.13184;100737.2;;;;-71
2023/03/06 08:46:07;;;;;;;;;;;;;;;4.72;84.85645;100740.8;;;;-71
2023/03/06 08:51:06;;;;;;;;;;;;;;;5.09;84.42578;100735.5;;;;-71
2023/03/06 08:56:06;;;;;;;;;;;;;;;5.44;83.63086;100729.1;;;;-71
2023/03/06 09:01:17;;;;;;;;;;;;;;;5.74;82.82715;100726.4;;;;-72
2023/03/06 09:02:28;;;;;;;4.7;0.5;;;;;;;;;;;;;-71
2023/03/06 09:06:06;;;;;;;;;;;;;;;5.98;81.89746;100720.3;;;;-71
2023/03/06 09:11:09;;;;;;;;;;;;;;;6.15;80.92285;100720.4;;;;-72
2023/03/06 09:16:07;;;;;;;;;;;;;;;6.42;80.64453;100721;;;;-72
2023/03/06 09:21:07;;;;;;;;;;;;;;;6.67;79.59375;100723.2;;;;-71
2023/03/06 09:26:06;;;;;;;;;;;;;;;6.91;78.8584;100724.5;;;;-71
2023/03/06 09:31:12;;;;;;;;;;;;;;;7.29;78.30176;100716.7;;;;-71
2023/03/06 09:32:28;;;;;;;1.2;0.4;;;;;;;;;;;;;-71
2023/03/06 09:36:11;;;;;;;;;;;;;;;7.67;77.47949;100707;;;;-72
2023/03/06 09:41:10;;;;;;;;;;;;;;;7.94;76.28418;100709.1;;;;-69
2023/03/06 09:46:09;;;;;;;;;;;;;;;8.14;75.64746;100703;;;;-71
2023/03/06 09:51:13;;;;;;;;;;;;;;;8.22;74.70117;100710.6;;;;-71
2023/03/06 09:56:08;;;;;;;;;;;;;;;8.32;74.125;100712.9;;;;-70
2023/03/06 10:01:09;;;;;;;;;;;;;;;8.38;72.94434;100712.2;;;;-72
2023/03/06 10:02:32;;;;;;;3.1;0.5;;;;;;;;;;;;;-71
2023/03/06 10:06:13;;;;;;;;;;;;;;;8.43;73.25;100713.4;;;;-71
2023/03/06 10:11:09;;;;;;;;;;;;;;;8.56;72.2002;100707.5;;;;-71
2023/03/06 10:16:12;;;;;;;;;;;;;;;8.57;71.35059;100699;;;;-71
2023/03/06 10:21:09;;;;;;;;;;;;;;;8.58;71.16699;100694.4;;;;-71
2023/03/06 10:26:13;;;;;;;;;;;;;;;8.56;71.01855;100694.3;;;;-71
2023/03/06 10:31:12;;;;;;;;;;;;;;;8.56;71.58203;100696.3;;;;-72
2023/03/06 10:32:36;;;;;;;1.1;0.5;;;;;;;;;;;;;-72
2023/03/06 10:36:06;;;;;;;;;;;;;;;8.73;72.07422;100691.1;;;;-71
2023/03/06 10:41:19;;;;;;;;;;;;;;;8.88;71.19238;100681.2;;;;-71
2023/03/06 10:46:07;;;;;;;;;;;;;;;9.09;71.51465;100674.8;;;;-71
2023/03/06 10:51:26;;;;;;;;;;;;;;;9.23;71.21777;100670.3;;;;-71
2023/03/06 10:56:07;;;;;;;;;;;;;;;9.21;69.67676;100668.2;;;;-72
2023/03/06 11:01:08;;;;;;;;;;;;;;;9.1;69.83496;100666.9;;;;-71
2023/03/06 11:02:35;;;;;;;1.7;0.7;;;;;;;;;;;;;-70
2023/03/06 11:06:14;;;;;;;;;;;;;;;8.98;70.10449;100662;;;;-73
2023/03/06 11:11:08;;;;;;;;;;;;;;;8.96;70.01172;100657;;;;-70
2023/03/06 11:16:22;;;;;;;;;;;;;;;8.94;70.74805;100649.9;;;;-71
2023/03/06 11:21:08;;;;;;;;;;;;;;;8.91;71.02148;100640;;;;-72
2023/03/06 11:26:16;;;;;;;;;;;;;;;8.91;72.10449;100634.6;;;;-71
2023/03/06 11:31:09;;;;;;;;;;;;;;;8.85;71.05664;100629.7;;;;-71
2023/03/06 11:32:32;;;;;;;3.6;1.2;;;;;;;;;;;;;-71
2023/03/06 11:36:12;;;;;;;;;;;;;;;8.73;72.2627;100623.7;;;;-71
2023/03/06 11:41:16;;;;;;;;;;;;;;;8.61;72.65137;100621.9;;;;-70
2023/03/06 11:46:11;;;;;;;;;;;;;;;8.46;72.68066;100620.8;;;;-72
2023/03/06 11:51:14;;;;;;;;;;;;;;;8.25;74.31055;100623.9;;;;-70
2023/03/06 11:56:13;;;;;;;;;;;;;;;8.1;74.33008;100619.7;;;;-72
2023/03/06 12:01:09;;;;;;;;;;;;;;;7.95;75.82324;100611.1;;;;-71
2023/03/06 12:02:38;;;;;;;3;1.4;;;;;;;;;;;;;-71
2023/03/06 12:06:11;;;;;;;;;;;;;;;7.9;75.3418;100609.2;;;;-70
2023/03/06 12:11:15;;;;;;;;;;;;;;;7.9;78.42383;100601;;;;-71
2023/03/06 12:16:23;;;;;;;;;;;;;;;7.89;76.57324;100594.5;;;;-72
2023/03/06 12:21:12;;;;;;;;;;;;;;;7.89;75.62695;100590.7;;;;-71
2023/03/06 12:26:12;;;;;;;;;;;;;;;7.98;76.23535;100579.3;;;;-71
2023/03/06 12:31:22;;;;;;;;;;;;;;;8.11;75.58594;100576.2;;;;-72
2023/03/06 12:32:42;;;;;;;3.3;1.6;;;;;;;;;;;;;-72
2023/03/06 12:36:17;;;;;;;;;;;;;;;8.27;76.48535;100570.9;;;;-71
2023/03/06 12:41:11;;;;;;;;;;;;;;;8.4;76.50781;100563.4;;;;-71
2023/03/06 12:46:11;;;;;;;;;;;;;;;8.42;75.54102;100557.8;;;;-71
2023/03/06 12:51:08;;;;;;;;;;;;;;;8.52;75.68066;100555.6;;;;-71
2023/03/06 12:56:07;;;;;;;;;;;;;;;8.53;75.38477;100539.8;;;;-70
2023/03/06 13:01:08;;;;;;;;;;;;;;;8.54;75.12207;100532;;;;-72
2023/03/06 13:02:54;;;;;;;5.5;2.8;;;;;;;;;;;;;-69
2023/03/06 13:06:11;;;;;;;;;;;;;;;8.5;75.00488;100524.9;;;;-70
2023/03/06 13:11:19;;;;;;;;;;;;;;;8.49;74.93555;100518.3;;;;-71
2023/03/06 13:16:24;;;;;;;;;;;;;;;8.51;75.87793;100510.9;;;;-70
2023/03/06 13:21:07;;;;;;;;;;;;;;;8.52;74.91992;100499.1;;;;-70
2023/03/06 13:26:08;;;;;;;;;;;;;;;8.47;74.74707;100489.1;;;;-71
2023/03/06 13:31:06;;;;;;;;;;;;;;;8.43;75.08105;100483;;;;-71
2023/03/06 13:32:36;;;;;;;6.8;3.2;;;;;;;;;;;;;-71
2023/03/06 13:36:16;;;;;;;;;;;;;;;8.36;75.51074;100473.1;;;;-70
2023/03/06 13:41:18;;;;;;;;;;;;;;;8.27;76.28711;100474.6;;;;-70
2023/03/06 13:46:16;;;;;;;;;;;;;;;8.22;76.17969;100464.5;;;;-70
2023/03/06 13:51:16;;;;;;;;;;;;;;;8.15;77.0918;100463.2;;;;-71
2023/03/06 13:56:20;;;;;;;;;;;;;;;8.04;75.99316;100452.5;;;;-70
2023/03/06 14:01:19;;;;;;;;;;;;;;;8.02;75.41602;100446.5;;;;-71
2023/03/06 14:02:42;;;;;;;8.1;3.4;;;;;;;;;;;;;-72
2023/03/06 14:06:16;;;;;;;;;;;;;;;7.93;76.34863;100445.1;;;;-71
2023/03/06 14:11:09;;;;;;;;;;;;;;;7.84;76.4209;100443;;;;-71
2023/03/06 14:16:13;;;;;;;;;;;;;;;7.67;76.0498;100432.3;;;;-71
2023/03/06 14:21:12;;;;;;;;;;;;;;;7.55;77.64551;100413.5;;;;-71
2023/03/06 14:26:16;;;;;;;;;;;;;;;7.36;75.44531;100419.5;;;;-70
2023/03/06 14:31:15;;;;;;;;;;;;;;;7.2;74.83594;100420.3;;;;-71
2023/03/06 14:32:37;;;;;;;4.5;2;;;;;;;;;;;;;-72
2023/03/06 14:36:09;;;;;;;;;;;;;;;7.06;73.92188;100423.2;;;;-70
2023/03/06 14:41:09;;;;;;;;;;;;;;;6.97;73.69531;100409.6;;;;-70
2023/03/06 14:46:10;;;;;;;;;;;;;;;6.85;73.5;100404.5;;;;-70
2023/03/06 14:51:07;;;;;;;;;;;;;;;6.83;73.37402;100400;;;;-70
2023/03/06 14:56:08;;;;;;;;;;;;;;;6.74;72.76855;100394.7;;;;-71
2023/03/06 15:01:10;;;;;;;;;;;;;;;6.76;74.76953;100381.8;;;;-70
2023/03/06 15:02:39;;;;;;;3.4;1.7;;;;;;;;;;;;;-71
2023/03/06 15:06:07;;;;;;;;;;;;;;;6.55;74.0752;100380.5;;;;-68
2023/03/06 15:11:08;;;;;;;;;;;;;;;6.46;73.89453;100368.7;;;;-71
2023/03/06 15:16:07;;;;;;;;;;;;;;;6.43;74.84473;100363.6;;;;-72
2023/03/06 15:21:17;;;;;;;;;;;;;;;6.42;74.50293;100364.2;;;;-70
2023/03/06 15:26:09;;;;;;;;;;;;;;;6.36;74.91992;100361.9;;;;-71
2023/03/06 15:31:20;;;;;;;;;;;;;;;6.26;75.97754;100359.2;;;;-71
2023/03/06 15:32:41;;;;;;;6.4;2.5;;;;;;;;;;;;;-70
2023/03/06 15:36:07;;;;;;;;;;;;;;;6.17;76.66406;100362;;;;-72
2023/03/06 15:41:11;;;;;;;;;;;;;;;6.03;76.7832;100358.8;;;;-71
2023/03/06 15:46:08;;;;;;;;;;;;;;;5.94;78.07129;100341.8;;;;-71
2023/03/06 15:51:09;;;;;;;;;;;;;;;5.83;78.35645;100330.2;;;;-71
2023/03/06 15:56:06;;;;;;;;;;;;;;;5.81;79.46777;100309.8;;;;-71
2023/03/06 16:01:06;;;;;;;;;;;;;;;5.69;79.28418;100298.7;;;;-72
2023/03/06 16:02:39;;;;;;;6.5;2.7;;;;;;;;;;;;;-71
2023/03/06 16:06:06;;;;;;;;;;;;;;;5.62;79.55469;100293.4;;;;-71
2023/03/06 16:11:06;;;;;;;;;;;;;;;5.48;78.5;100274.3;;;;-72
2023/03/06 16:16:06;;;;;;;;;;;;;;;5.44;79.64355;100265.6;;;;-72
2023/03/06 16:21:06;;;;;;;;;;;;;;;5.44;78.96582;100262.8;;;;-71
2023/03/06 16:26:06;;;;;;;;;;;;;;;5.35;79.24219;100263.6;;;;-72
2023/03/06 16:31:06;;;;;;;;;;;;;;;5.22;78.88184;100256;;;;-71
2023/03/06 16:32:39;;;;;;;4.8;2.3;;;;;;;;;;;;;-70
2023/03/06 16:36:13;;;;;;;;;;;;;;;5.16;79.41504;100244.8;;;;-70
2023/03/06 16:41:07;;;;;;;;;;;;;;;5.09;79.93848;100243.3;;;;-71
2023/03/06 16:46:07;;;;;;;;;;;;;;;5;80.54492;100227.1;;;;-70
2023/03/06 16:51:06;;;;;;;;;;;;;;;4.93;80.7168;100218.9;;;;-71
2023/03/06 16:56:06;;;;;;;;;;;;;;;4.81;80.96777;100215.9;;;;-72
2023/03/06 17:01:13;;;;;;;;;;;;;;;4.74;81.64063;100206.6;;;;-71
2023/03/06 17:02:39;;;;;;;9.6;4;;;;;;;;;;;;;-70
2023/03/06 17:06:07;;;;;;;;;;;;;;;4.66;82.36914;100208.9;;;;-72
2023/03/06 17:11:07;;;;;;;;;;;;;;;4.58;82.33008;100207.2;;;;-71
2023/03/06 17:16:07;;;;;;;;;;;;;;;4.53;82.60449;100195.7;;;;-72
2023/03/06 17:21:10;;;;;;;;;;;;;;;4.41;83.73535;100184.6;;;;-73
2023/03/06 17:26:12;;;;;;;;;;;;;;;4.38;83.58984;100181;;;;-71
2023/03/06 17:31:13;;;;;;;;;;;;;;;4.31;84.34766;100175.6;;;;-72
2023/03/06 17:32:40;;;;;;;13;5.4;;;;;;;;;;;;;-71
2023/03/06 17:36:07;;;;;;;;;;;;;;;4.24;85.17383;100178.6;;;;-71
2023/03/06 17:41:11;;;;;;;;;;;;;;;4.18;85.28223;100164.2;;;;-70
2023/03/06 17:46:09;;;;;;;;;;;;;;;4.11;86.52832;100169;;;;-72
2023/03/06 17:51:07;;;;;;;;;;;;;;;4.06;86.78223;100162.5;;;;-71
2023/03/06 17:56:07;;;;;;;;;;;;;;;4.02;86.90332;100165.1;;;;-71
2023/03/06 18:01:11;;;;;;;;;;;;;;;3.96;86.80566;100160.2;;;;-72
2023/03/06 18:02:40;;;;;;;15.8;6.2;;;;;;;;;;;;;-72
2023/03/06 18:06:11;;;;;;;;;;;;;;;3.91;86.96875;100155.2;;;;-71
2023/03/06 18:11:08;;;;;;;;;;;;;;;3.91;87.34961;100152.8;;;;-72
2023/03/06 18:16:11;;;;;;;;;;;;;;;3.85;87.72754;100141.3;;;;-72
2023/03/06 18:21:10;;;;;;;;;;;;;;;3.82;88.58008;100144.9;;;;-73
2023/03/06 18:26:14;;;;;;;;;;;;;;;3.78;88.5293;100130.8;;;;-71
2023/03/06 18:31:16;;;;;;;;;;;;;;;3.78;88.39941;100123.7;;;;-71
2023/03/06 18:32:40;;;;;;;15.5;6.5;;;;;;;;;;;;;-72
2023/03/06 18:36:09;;;;;;;;;;;;;;;3.77;88.21094;100130;;;;-71
2023/03/06 18:41:06;;;;;;;;;;;;;;;3.72;89.47266;100116.8;;;;-72
2023/03/06 18:46:12;;;;;;;;;;;;;;;3.71;89.39648;100108.7;;;;-73
2023/03/06 18:51:18;;;;;;;;;;;;;;;3.7;89.38379;100108;;;;-71
2023/03/06 18:56:10;;;;;;;;;;;;;;;3.69;89.46484;100095.1;;;;-71
2023/03/06 19:01:07;;;;;;;;;;;;;;;3.67;89.98242;100078.4;;;;-72
2023/03/06 19:02:40;;;;;;;19.1;7;;;;;;;;;;;;;-72
2023/03/06 19:06:07;;;;;;;;;;;;;;;3.68;91.03906;100071.2;;;;-72
2023/03/06 19:11:09;;;;;;;;;;;;;;;3.67;89.71484;100059.3;;;;-72
2023/03/06 19:16:06;;;;;;;;;;;;;;;3.66;90.10156;100043.7;;;;-72
2023/03/06 19:21:20;;;;;;;;;;;;;;;3.66;90.4707;100029.4;;;;-72
2023/03/06 19:26:09;;;;;;;;;;;;;;;3.65;90.00195;100013.9;;;;-72
2023/03/06 19:31:11;;;;;;;;;;;;;;;3.66;89.9043;100000.5;;;;-72
2023/03/06 19:32:43;;;;;;;17.8;7.6;;;;;;;;;;;;;-74
2023/03/06 19:36:09;;;;;;;;;;;;;;;3.65;90.93359;99990.58;;;;-71
2023/03/06 19:41:12;;;;;;;;;;;;;;;3.65;90.59863;99973.42;;;;-71
2023/03/06 19:46:06;;;;;;;;;;;;;;;3.65;90.74023;99980.01;;;;-72
2023/03/06 19:51:10;;;;;;;;;;;;;;;3.66;91.83594;99973.19;;;;-72
2023/03/06 19:56:12;;;;;;;;;;;;;;;3.69;91.55957;99979.05;;;;-72
2023/03/06 20:01:13;;;;;;;;;;;;;;;3.72;91.5127;99972.83;;;;-71
2023/03/06 20:02:43;;;;;;;23.1;9.3;;;;;;;;;;;;;-72
2023/03/06 20:06:09;;;;;;;;;;;;;;;3.7;92.0752;99957.83;;;;-71
2023/03/06 20:11:07;;;;;;;;;;;;;;;3.71;91.83887;99941.88;;;;-72
2023/03/06 20:16:11;;;;;;;;;;;;;;;3.75;92.49805;99922.28;;;;-71
2023/03/06 20:21:07;;;;;;;;;;;;;;;3.79;92.35352;99912.51;;;;-72
2023/03/06 20:26:12;;;;;;;;;;;;;;;3.78;92.31934;99909.88;;;;-72
2023/03/06 20:31:07;;;;;;;;;;;;;;;3.8;92.20508;99898.03;;;;-71
2023/03/06 20:32:41;;;;;;;19.6;8;;;;;;;;;;;;;-72
2023/03/06 20:34:00;;;;;;;;;;;;;;;3.83;92.94727;99922.48;;;;-72
2023/03/06 20:39:07;;;;;;;;;;;;;;;3.85;91.65039;99939.34;;;;-72
2023/03/06 20:44:03;;;;;;;;;;;;;;;3.87;91.41602;99948.91;;;;-72
2023/03/06 20:49:00;;;;;;;;;;;;;;;3.86;91.06641;99930.34;;;;-72
2023/03/06 20:54:00;;;;;;;;;;;;;;;3.86;91.25977;99931.12;;;;-72
2023/03/06 20:59:00;;;;;;;;;;;;;;;3.84;90.3457;99929;;;;-71
2023/03/06 21:02:40;;;;;;;11.4;4.8;;;;;;;;;;;;;-72
2023/03/06 21:04:00;;;;;;;;;;;;;;;3.83;91.18848;99932.81;;;;-72
2023/03/06 21:09:00;;;;;;;;;;;;;;;3.82;90.96973;99924.14;;;;-71
2023/03/06 21:13:59;;;;;;;;;;;;;;;3.82;90.62207;99923.88;;;;-71
2023/03/06 21:19:01;;;;;;;;;;;;;;;3.82;90.95898;99920.45;;;;-72
2023/03/06 21:23:59;;;;;;;;;;;;;;;3.81;90.41406;99912.64;;;;-72
2023/03/06 21:29:00;;;;;;;;;;;;;;;3.82;90.90625;99911.28;;;;-72
2023/03/06 21:32:41;;;;;;;5.4;2.2;;;;;;;;;;;;;-72
2023/03/06 21:34:00;;;;;;;;;;;;;;;3.83;90.7002;99894.08;;;;-72
2023/03/06 21:38:59;;;;;;;;;;;;;;;3.82;90.74219;99891.22;;;;-71
2023/03/06 21:44:03;;;;;;;;;;;;;;;3.82;90.17676;99889.69;;;;-71
2023/03/06 21:49:00;;;;;;;;;;;;;;;3.82;90.2207;99884.69;;;;-71
2023/03/06 21:54:00;;;;;;;;;;;;;;;3.78;90.94043;99881.54;;;;-71
2023/03/06 21:58:59;;;;;;;;;;;;;;;3.76;90.37207;99882.53;;;;-72
2023/03/06 22:02:41;;;;;;;4;1.2;;;;;;;;;;;;;-72
2023/03/06 22:04:01;;;;;;;;;;;;;;;3.75;90.95605;99877.42;;;;-72
2023/03/06 22:09:00;;;;;;;;;;;;;;;3.75;89.99023;99872.03;;;;-71
2023/03/06 22:13:59;;;;;;;;;;;;;;;3.75;90.70508;99866.11;;;;-72
2023/03/06 22:18:59;;;;;;;;;;;;;;;3.75;90.28125;99865.46;;;;-72
2023/03/06 22:24:01;;;;;;;;;;;;;;;3.77;90.78613;99895.98;;;;-71
2023/03/06 22:29:02;;;;;;;;;;;;;;;3.74;91.10449;99880.02;;;;-72
2023/03/06 22:32:43;;;;;;;2.6;1;;;;;;;;;;;;;-74
2023/03/06 22:34:00;;;;;;;;;;;;;;;3.72;91.07031;99873.98;;;;-73
2023/03/06 22:39:01;;;;;;;;;;;;;;;3.73;90.85254;99866.41;;;;-73
2023/03/06 22:43:59;;;;;;;;;;;;;;;3.73;91.18945;99862.98;;;;-71
2023/03/06 22:49:02;;;;;;;;;;;;;;;3.73;90.39746;99857.09;;;;-72
2023/03/06 22:53:59;;;;;;;;;;;;;;;3.71;90.45801;99854.67;;;;-74
2023/03/06 22:59:00;;;;;;;;;;;;;;;3.71;90.66699;99845.9;;;;-71
2023/03/06 23:02:42;;;;;;;3.4;0.8;;;;;;;;;;;;;-71
2023/03/06 23:04:00;;;;;;;;;;;;;;;3.71;90.48047;99853.27;;;;-72
2023/03/06 23:09:03;;;;;;;;;;;;;;;3.68;90.36621;99847.55;;;;-71
2023/03/06 23:14:01;;;;;;;;;;;;;;;3.68;90.60449;99848.7;;;;-71
2023/03/06 23:18:59;;;;;;;;;;;;;;;3.65;90.70703;99850.47;;;;-71
2023/03/06 23:23:59;;;;;;;;;;;;;;;3.63;90.60449;99849.5;;;;-72
2023/03/06 23:28:59;;;;;;;;;;;;;;;3.62;90.38477;99849.52;;;;-71
2023/03/06 23:32:41;;;;;;;1.7;0.7;;;;;;;;;;;;;-71
2023/03/06 23:34:00;;;;;;;;;;;;;;;3.59;90.97461;99851.01;;;;-72
2023/03/06 23:39:02;;;;;;;;;;;;;;;3.59;90.65918;99846.44;;;;-72
2023/03/06 23:43:59;;;;;;;;;;;;;;;3.57;90.45313;99852.75;;;;-72
2023/03/06 23:49:02;;;;;;;;;;;;;;;3.57;91.10449;99852.75;;;;-72
2023/03/06 23:54:00;;;;;;;;;;;;;;;3.61;91.03418;99874.61;;;;-72
2023/03/06 23:58:59;;;;;;;;;;;;;;;3.6;91.09766;99875.93;;;;-72
